Time;durP1;ratioP1;P1;durP2;ratioP2;P2;SDS_P1;SDS_P2;PMS_P1;PMS_P2;Temp;Humidity;BMP_temperature;BMP_pressure;BME280_temperature;BME280_humidity;BME280_pressure;Samples;Min_cycle;Max_cycle;Signal;HPM_P1;HPM_P2
2022/11/27 00:00:58;;;;;;;24.17;7.03;;;5.30;99.90;;;;;;5005812;28;20501;-81
2022/11/27 00:03:25;;;;;;;20.63;6.88;;;5.30;99.90;;;;;;5001604;28;20052;-78
2022/11/27 00:05:54;;;;;;;13.48;5.35;;;5.30;99.90;;;;;;5007141;28;20033;-80
2022/11/27 00:08:21;;;;;;;16.90;5.53;;;5.30;99.90;;;;;;5015724;28;20033;-81
2022/11/27 00:10:47;;;;;;;15.73;5.45;;;5.30;99.90;;;;;;5020431;28;20032;-81
2022/11/27 00:13:14;;;;;;;9.90;4.47;;;5.20;99.90;;;;;;5021263;28;20038;-81
2022/11/27 00:15:40;;;;;;;9.55;4.30;;;5.20;99.90;;;;;;5003502;28;20151;-78
2022/11/27 00:18:06;;;;;;;12.45;5.25;;;5.20;99.90;;;;;;5003736;28;20033;-82
2022/11/27 00:20:33;;;;;;;11.55;4.53;;;5.20;99.90;;;;;;5036070;28;20087;-82
2022/11/27 00:22:59;;;;;;;11.38;4.75;;;5.10;99.90;;;;;;5019234;28;20045;-83
2022/11/27 00:25:25;;;;;;;12.20;5.05;;;5.10;99.90;;;;;;5002444;28;20044;-82
2022/11/27 00:27:52;;;;;;;16.63;5.82;;;5.10;99.90;;;;;;5002192;28;20396;-80
2022/11/27 00:30:18;;;;;;;14.65;5.05;;;5.10;99.90;;;;;;5005096;28;20030;-79
2022/11/27 00:32:44;;;;;;;13.88;4.95;;;5.10;99.90;;;;;;5004130;28;20481;-79
2022/11/27 00:35:11;;;;;;;12.43;5.18;;;5.10;99.90;;;;;;5006923;28;20044;-82
2022/11/27 00:37:37;;;;;;;10.63;4.57;;;5.10;99.90;;;;;;5020810;28;20488;-81
2022/11/27 00:40:04;;;;;;;10.98;4.82;;;5.10;99.90;;;;;;5020298;28;20040;-81
2022/11/27 00:42:31;;;;;;;14.82;5.10;;;5.10;99.90;;;;;;5007033;28;20401;-77
2022/11/27 00:44:57;;;;;;;14.38;5.57;;;5.10;99.90;;;;;;5001363;28;20501;-80
2022/11/27 00:47:23;;;;;;;15.15;6.13;;;5.10;99.90;;;;;;5002903;28;20658;-82
2022/11/27 00:49:50;;;;;;;14.75;6.07;;;5.10;99.90;;;;;;5005152;28;20021;-83
2022/11/27 00:52:16;;;;;;;18.73;6.97;;;5.00;99.90;;;;;;5021201;28;20034;-80
2022/11/27 00:54:42;;;;;;;11.75;6.53;;;5.00;99.90;;;;;;5010939;28;20048;-80
2022/11/27 00:57:09;;;;;;;17.15;6.53;;;5.00;99.90;;;;;;5005815;28;20393;-81
2022/11/27 00:59:35;;;;;;;14.15;6.68;;;5.00;99.90;;;;;;5022970;28;20392;-81
2022/11/27 01:02:02;;;;;;;17.33;6.63;;;5.00;99.90;;;;;;5023092;28;20404;-80
2022/11/27 01:04:29;;;;;;;12.65;6.07;;;5.00;99.90;;;;;;5041280;28;20037;-82
2022/11/27 01:06:55;;;;;;;19.35;7.65;;;5.10;99.90;;;;;;5023120;28;20591;-75
2022/11/27 01:09:21;;;;;;;17.52;7.50;;;5.00;99.90;;;;;;4990734;28;20038;-80
2022/11/27 01:11:48;;;;;;;14.85;8.15;;;5.00;99.90;;;;;;5024482;28;20041;-81
2022/11/27 01:14:17;;;;;;;14.57;7.28;;;5.00;99.90;;;;;;5026620;28;20033;-82
2022/11/27 01:16:43;;;;;;;21.85;9.07;;;5.00;99.90;;;;;;5008384;28;20345;-84
2022/11/27 01:19:11;;;;;;;15.82;7.80;;;5.00;99.90;;;;;;4990122;28;20396;-83
2022/11/27 01:21:38;;;;;;;15.43;7.28;;;5.00;99.90;;;;;;5024296;28;20512;-79
2022/11/27 01:24:05;;;;;;;16.23;7.57;;;5.00;99.90;;;;;;5025643;28;20041;-83
2022/11/27 01:26:31;;;;;;;22.00;8.93;;;5.00;99.90;;;;;;5025215;28;20484;-82
2022/11/27 01:28:58;;;;;;;16.80;7.40;;;5.00;99.90;;;;;;5023814;28;20247;-83
2022/11/27 01:31:27;;;;;;;20.02;8.75;;;5.00;99.90;;;;;;5027158;28;20032;-82
2022/11/27 01:34:00;;;;;;;15.82;7.55;;;5.00;99.90;;;;;;5027124;28;20040;-79
2022/11/27 01:36:26;;;;;;;18.35;8.93;;;4.90;99.90;;;;;;5025000;28;20049;-83
2022/11/27 01:38:53;;;;;;;16.05;7.72;;;4.90;99.90;;;;;;5039389;28;20496;-82
2022/11/27 01:41:40;;;;;;;19.73;8.80;;;4.90;99.90;;;;;;5010159;28;20041;-83
2022/11/27 01:44:22;;;;;;;14.38;6.88;;;4.80;99.90;;;;;;5014311;28;20025;-82
2022/11/27 01:47:05;;;;;;;15.23;7.35;;;4.80;99.90;;;;;;5028384;28;20029;-83
2022/11/27 01:49:37;;;;;;;;;;;4.80;99.90;;;;;;5011930;28;20033;-80
2022/11/27 01:52:19;;;;;;;14.45;7.57;;;4.70;99.90;;;;;;5012398;28;19916;-80
2022/11/27 01:55:17;;;;;;;15.25;8.45;;;4.70;99.90;;;;;;5043546;28;20040;-84
2022/11/27 01:57:52;;;;;;;18.75;8.68;;;4.70;99.90;;;;;;5008364;28;20052;-82
2022/11/27 02:00:19;;;;;;;19.15;9.20;;;4.70;99.90;;;;;;5011384;28;20240;-85
2022/11/27 02:02:46;;;;;;;19.38;9.27;;;4.70;99.90;;;;;;5027726;28;20041;-81
2022/11/27 02:05:20;;;;;;;16.67;8.27;;;4.60;99.90;;;;;;5044660;28;20025;-80
2022/11/27 02:07:47;;;;;;;15.77;10.05;;;4.70;99.90;;;;;;5007585;28;20036;-79
2022/11/27 02:10:14;;;;;;;17.40;8.82;;;4.60;99.90;;;;;;5010505;28;20485;-83
2022/11/27 02:12:51;;;;;;;18.05;11.32;;;4.60;99.90;;;;;;5022537;28;20492;-79
2022/11/27 02:15:47;;;;;;;22.58;11.05;;;4.60;99.90;;;;;;5038652;28;20033;-80
2022/11/27 02:18:16;;;;;;;22.15;11.63;;;4.60;99.90;;;;;;4988379;28;20048;-78
2022/11/27 02:20:54;;;;;;;19.20;11.50;;;4.60;99.90;;;;;;5006861;28;20049;-80
2022/11/27 02:23:57;;;;;;;20.08;10.98;;;4.60;99.90;;;;;;4992486;28;20037;-84
2022/11/27 02:26:52;;;;;;;24.98;11.98;;;4.60;99.90;;;;;;5005754;28;20408;-84
2022/11/27 02:29:22;;;;;;;18.20;9.90;;;4.60;99.90;;;;;;5014127;28;20057;-82
2022/11/27 02:32:05;;;;;;;22.38;10.82;;;4.60;99.90;;;;;;5014936;28;20030;-78
2022/11/27 02:34:59;;;;;;;20.63;10.82;;;4.60;99.90;;;;;;4998546;28;20041;-80
2022/11/27 02:37:45;;;;;;;19.02;10.27;;;4.60;99.90;;;;;;5019992;28;20037;-82
2022/11/27 02:40:26;;;;;;;22.02;11.75;;;4.60;99.90;;;;;;5020708;28;20030;-81
2022/11/27 02:43:08;;;;;;;23.98;11.02;;;4.60;99.90;;;;;;5008686;28;20056;-78
2022/11/27 02:45:38;;;;;;;19.57;10.90;;;4.50;99.90;;;;;;5008047;28;20257;-76
2022/11/27 02:48:06;;;;;;;17.17;9.00;;;4.50;99.90;;;;;;5017071;28;20038;-80
2022/11/27 02:50:35;;;;;;;12.48;7.13;;;4.50;99.90;;;;;;5023170;28;20029;-80
2022/11/27 02:53:07;;;;;;;14.27;9.23;;;4.50;99.90;;;;;;5007109;28;20041;-78
2022/11/27 02:55:36;;;;;;;16.13;8.82;;;4.50;99.90;;;;;;5008268;28;20033;-80
2022/11/27 02:58:08;;;;;;;22.70;10.18;;;4.50;99.90;;;;;;5006327;28;20486;-78
2022/11/27 03:00:36;;;;;;;16.05;9.02;;;4.50;99.90;;;;;;5004847;28;20040;-81
2022/11/27 03:03:07;;;;;;;14.90;7.90;;;4.50;99.90;;;;;;5024997;28;20030;-85
2022/11/27 03:05:38;;;;;;;15.30;7.75;;;4.60;99.90;;;;;;5009125;28;20105;-78
2022/11/27 03:08:12;;;;;;;16.42;7.97;;;4.60;99.90;;;;;;4989293;28;20056;-81
2022/11/27 03:11:09;;;;;;;19.88;9.15;;;4.60;99.90;;;;;;5024848;28;20038;-81
2022/11/27 03:13:39;;;;;;;22.58;8.85;;;4.70;99.90;;;;;;4990394;28;20371;-82
2022/11/27 03:16:13;;;;;;;18.17;8.77;;;4.70;99.90;;;;;;5007207;28;20033;-79
2022/11/27 03:19:05;;;;;;;22.27;9.15;;;4.70;99.90;;;;;;5014512;28;20063;-76
2022/11/27 03:21:39;;;;;;;18.93;9.73;;;4.80;99.90;;;;;;5001248;28;20413;-81
2022/11/27 03:24:07;;;;;;;17.60;7.72;;;4.80;99.90;;;;;;5006451;28;20037;-80
2022/11/27 03:26:34;;;;;;;17.88;8.35;;;4.90;99.90;;;;;;5023249;28;20037;-79
2022/11/27 03:29:05;;;;;;;20.33;6.82;;;4.90;99.90;;;;;;5001450;28;20056;-82
2022/11/27 03:31:31;;;;;;;19.27;8.85;;;5.00;99.90;;;;;;5022821;28;20038;-79
2022/11/27 03:33:58;;;;;;;19.15;8.80;;;5.00;99.90;;;;;;5023628;28;20045;-81
2022/11/27 03:36:24;;;;;;;19.48;8.73;;;5.00;99.90;;;;;;4991172;28;20029;-83
2022/11/27 03:38:53;;;;;;;16.80;6.82;;;5.10;99.90;;;;;;5004367;28;20032;-81
2022/11/27 03:41:40;;;;;;;17.67;7.40;;;5.10;99.90;;;;;;5006030;28;20622;-82
2022/11/27 03:44:21;;;;;;;23.83;7.70;;;5.10;99.90;;;;;;5036497;28;20034;-82
2022/11/27 03:47:15;;;;;;;16.52;7.43;;;5.20;99.90;;;;;;5007108;28;20068;-81
2022/11/27 03:50:06;;;;;;;11.70;6.68;;;5.20;99.90;;;;;;5018285;28;20034;-80
2022/11/27 03:52:37;;;;;;;13.23;6.72;;;5.20;99.90;;;;;;5015665;28;20036;-81
2022/11/27 03:55:22;;;;;;;20.40;7.43;;;5.20;99.90;;;;;;5018265;28;20053;-76
2022/11/27 03:57:59;;;;;;;15.35;6.30;;;5.30;99.90;;;;;;5015366;28;20355;-79
2022/11/27 04:00:31;;;;;;;14.43;6.43;;;5.30;99.90;;;;;;5020161;28;20034;-82
2022/11/27 04:02:57;;;;;;;28.20;6.75;;;5.30;99.90;;;;;;5018403;28;20044;-81
2022/11/27 04:05:24;;;;;;;22.38;7.85;;;5.30;99.90;;;;;;5019836;28;20048;-82
2022/11/27 04:07:50;;;;;;;19.80;6.53;;;5.40;99.90;;;;;;5018704;28;20033;-81
2022/11/27 04:10:17;;;;;;;11.82;5.55;;;5.40;99.90;;;;;;5005387;28;20037;-82
2022/11/27 04:12:43;;;;;;;17.80;6.90;;;5.40;99.90;;;;;;5035513;28;20049;-81
2022/11/27 04:15:10;;;;;;;16.23;6.45;;;5.40;99.90;;;;;;5022034;28;20029;-81
2022/11/27 04:17:37;;;;;;;19.10;6.00;;;5.40;99.90;;;;;;5002990;28;20389;-81
2022/11/27 04:20:06;;;;;;;22.40;7.07;;;5.40;99.90;;;;;;4991091;28;20041;-82
2022/11/27 04:22:32;;;;;;;11.40;5.20;;;5.40;99.90;;;;;;5019630;28;20518;-82
2022/11/27 04:24:58;;;;;;;13.52;5.93;;;5.40;99.90;;;;;;5027815;28;20056;-79
2022/11/27 04:27:24;;;;;;;14.65;6.28;;;5.50;99.90;;;;;;5009288;28;20041;-77
2022/11/27 04:29:51;;;;;;;15.10;5.57;;;5.50;99.90;;;;;;5011007;28;20034;-82
2022/11/27 04:32:17;;;;;;;16.17;5.70;;;5.50;99.90;;;;;;5025676;28;20629;-79
2022/11/27 04:34:43;;;;;;;13.57;5.43;;;5.50;99.90;;;;;;5025964;28;20037;-80
2022/11/27 04:37:10;;;;;;;15.48;5.45;;;5.50;99.90;;;;;;5020104;28;20456;-78
2022/11/27 04:39:36;;;;;;;19.00;5.70;;;5.50;99.90;;;;;;5006406;28;20048;-80
2022/11/27 04:42:03;;;;;;;12.48;5.88;;;5.50;99.90;;;;;;5024451;28;20053;-82
2022/11/27 04:44:29;;;;;;;11.65;5.03;;;5.50;99.90;;;;;;5007022;28;20037;-82
2022/11/27 04:46:55;;;;;;;17.58;5.03;;;5.50;99.90;;;;;;5022857;28;20508;-77
2022/11/27 04:49:22;;;;;;;12.88;3.90;;;5.50;99.90;;;;;;5007003;28;20030;-83
2022/11/27 04:51:48;;;;;;;6.30;3.97;;;5.60;99.90;;;;;;5025424;28;20045;-80
2022/11/27 04:54:14;;;;;;;7.15;3.53;;;5.60;99.90;;;;;;5008708;28;20037;-80
2022/11/27 04:56:41;;;;;;;15.00;4.22;;;5.60;99.90;;;;;;5008635;28;20033;-82
2022/11/27 04:59:07;;;;;;;14.35;5.80;;;5.60;99.90;;;;;;5022711;28;20053;-82
2022/11/27 05:01:34;;;;;;;14.57;5.38;;;5.60;99.90;;;;;;5027054;28;20061;-77
2022/11/27 05:04:00;;;;;;;10.75;4.15;;;5.60;99.90;;;;;;5008698;28;20712;-81
2022/11/27 05:06:27;;;;;;;13.88;4.72;;;5.60;99.90;;;;;;5025006;28;20388;-82
2022/11/27 05:09:00;;;;;;;12.65;5.30;;;5.60;99.90;;;;;;5021888;28;20033;-82
2022/11/27 05:11:28;;;;;;;11.25;4.60;;;5.60;99.90;;;;;;5008889;28;20543;-82
2022/11/27 05:16:40;;;;;;;17.38;6.20;;;5.60;99.90;;;;;;5029094;28;20478;-80
2022/11/27 05:19:09;;;;;;;10.23;4.53;;;5.60;99.90;;;;;;5026216;28;20040;-83
2022/11/27 05:21:36;;;;;;;9.35;3.92;;;5.60;99.90;;;;;;5029279;28;20041;-81
2022/11/27 05:24:03;;;;;;;12.93;4.70;;;5.60;99.90;;;;;;5012421;28;20029;-76
2022/11/27 05:26:30;;;;;;;9.90;4.85;;;5.60;99.90;;;;;;5029148;28;20037;-82
2022/11/27 05:28:56;;;;;;;14.60;5.15;;;5.60;99.90;;;;;;4993115;28;20053;-76
2022/11/27 05:31:22;;;;;;;12.10;5.10;;;5.60;99.90;;;;;;5028708;28;20044;-81
2022/11/27 05:33:49;;;;;;;11.73;5.32;;;5.60;99.90;;;;;;5028858;28;20033;-78
2022/11/27 05:36:15;;;;;;;12.43;4.85;;;5.70;99.90;;;;;;5029346;28;20049;-83
2022/11/27 05:38:41;;;;;;;10.00;4.97;;;5.60;99.90;;;;;;5026027;28;20069;-78
2022/11/27 05:41:08;;;;;;;9.57;4.97;;;5.60;99.90;;;;;;5028782;28;20037;-81
2022/11/27 05:43:34;;;;;;;9.57;4.35;;;5.60;99.90;;;;;;5028955;28;20033;-81
2022/11/27 05:46:09;;;;;;;9.48;4.35;;;5.60;99.90;;;;;;5028599;28;20044;-83
2022/11/27 05:48:35;;;;;;;14.13;5.07;;;5.70;99.90;;;;;;5024644;28;20068;-83
2022/11/27 05:51:02;;;;;;;9.32;4.68;;;5.70;99.90;;;;;;5012635;28;20037;-82
2022/11/27 05:53:29;;;;;;;12.85;4.68;;;5.70;99.90;;;;;;5028482;28;20041;-81
2022/11/27 05:56:06;;;;;;;10.05;4.57;;;5.70;99.90;;;;;;5029178;28;20021;-84
2022/11/27 05:58:34;;;;;;;10.88;5.22;;;5.80;99.90;;;;;;4991466;28;20524;-79
2022/11/27 06:01:01;;;;;;;8.80;4.60;;;5.70;99.90;;;;;;5012428;28;20045;-83
2022/11/27 06:03:27;;;;;;;11.02;5.57;;;5.70;99.90;;;;;;5028503;28;20033;-82
2022/11/27 06:05:54;;;;;;;7.13;4.00;;;5.70;99.90;;;;;;5020857;28;20472;-82
2022/11/27 06:08:20;;;;;;;10.05;4.43;;;5.80;99.90;;;;;;5008671;28;20052;-81
2022/11/27 06:10:47;;;;;;;10.10;4.35;;;5.80;99.90;;;;;;5012312;28;20045;-81
2022/11/27 06:13:14;;;;;;;10.23;4.32;;;5.80;99.90;;;;;;5028530;28;20419;-81
2022/11/27 06:15:41;;;;;;;9.85;4.45;;;5.80;99.90;;;;;;5011814;28;20527;-78
2022/11/27 06:18:09;;;;;;;9.90;4.60;;;5.80;99.90;;;;;;5008343;28;20030;-83
2022/11/27 06:20:36;;;;;;;9.70;4.82;;;5.80;99.90;;;;;;5042921;28;20408;-82
2022/11/27 06:23:03;;;;;;;12.45;5.25;;;5.80;99.90;;;;;;5029717;28;20045;-82
2022/11/27 06:25:29;;;;;;;9.73;4.63;;;5.80;99.90;;;;;;5011124;28;20033;-82
2022/11/27 06:27:55;;;;;;;9.77;5.53;;;5.80;99.90;;;;;;5025992;28;20044;-79
2022/11/27 06:30:22;;;;;;;15.18;5.75;;;5.80;99.90;;;;;;5028030;28;20037;-83
2022/11/27 06:32:48;;;;;;;9.30;4.50;;;5.80;99.90;;;;;;5011596;28;20034;-82
2022/11/27 06:35:14;;;;;;;10.52;4.70;;;5.90;99.90;;;;;;5027662;28;20040;-83
2022/11/27 06:37:40;;;;;;;11.60;5.18;;;5.90;99.90;;;;;;5026615;28;20033;-80
2022/11/27 06:40:07;;;;;;;9.40;5.03;;;5.90;99.90;;;;;;5027646;28;20057;-81
2022/11/27 06:42:33;;;;;;;15.52;6.15;;;5.90;99.90;;;;;;5010993;28;20037;-80
2022/11/27 06:45:00;;;;;;;14.88;6.10;;;5.90;99.90;;;;;;5010977;28;20500;-81
2022/11/27 06:47:26;;;;;;;10.85;5.00;;;5.90;99.90;;;;;;5024210;28;20504;-81
2022/11/27 06:49:52;;;;;;;9.27;5.78;;;5.90;99.90;;;;;;5010986;28;20815;-83
2022/11/27 06:52:18;;;;;;;13.63;5.88;;;5.90;99.90;;;;;;4994971;28;20052;-83
2022/11/27 06:54:45;;;;;;;11.07;5.65;;;5.90;99.90;;;;;;5028544;28;20044;-80
2022/11/27 06:57:13;;;;;;;7.38;4.60;;;5.90;99.90;;;;;;5023634;28;20080;-77
2022/11/27 06:59:39;;;;;;;9.63;5.00;;;5.90;99.90;;;;;;5044126;28;20289;-82
2022/11/27 07:02:05;;;;;;;8.27;4.80;;;6.00;99.90;;;;;;5029050;28;20051;-82
2022/11/27 07:04:32;;;;;;;16.65;6.78;;;6.00;99.90;;;;;;5010682;28;20412;-80
2022/11/27 07:06:58;;;;;;;15.23;6.00;;;6.00;99.90;;;;;;5009823;28;20373;-77
2022/11/27 07:09:24;;;;;;;13.20;6.10;;;6.00;99.90;;;;;;5025190;28;20055;-82
2022/11/27 07:11:50;;;;;;;13.10;6.57;;;6.00;99.90;;;;;;5027358;28;20036;-82
2022/11/27 07:14:17;;;;;;;14.82;6.53;;;6.00;99.90;;;;;;5011071;28;20500;-79
2022/11/27 07:16:43;;;;;;;19.60;6.70;;;6.00;99.90;;;;;;5027713;28;20044;-82
2022/11/27 07:19:09;;;;;;;11.98;5.93;;;6.00;99.90;;;;;;5009019;28;20030;-82
2022/11/27 07:21:36;;;;;;;11.38;6.70;;;6.00;99.90;;;;;;5028198;28;20052;-82
2022/11/27 07:24:03;;;;;;;14.75;7.32;;;6.00;99.90;;;;;;5029314;28;20511;-83
2022/11/27 07:26:29;;;;;;;12.45;7.43;;;6.00;99.90;;;;;;5044650;28;20041;-80
2022/11/27 07:28:56;;;;;;;8.80;5.70;;;6.00;99.90;;;;;;5007462;28;20022;-79
2022/11/27 07:31:26;;;;;;;16.52;7.90;;;6.00;99.90;;;;;;5027335;28;20386;-79
2022/11/27 07:33:53;;;;;;;18.27;8.05;;;6.00;99.90;;;;;;4994833;28;20052;-77
2022/11/27 07:36:22;;;;;;;17.23;7.53;;;6.10;99.90;;;;;;5027339;28;20052;-80
2022/11/27 07:38:48;;;;;;;13.90;6.32;;;6.10;99.90;;;;;;5006638;28;20048;-84
2022/11/27 07:41:15;;;;;;;15.80;7.05;;;6.10;99.90;;;;;;5042708;28;20037;-86
2022/11/27 07:43:42;;;;;;;16.73;9.10;;;6.10;99.90;;;;;;5010941;28;20678;-82
2022/11/27 07:46:21;;;;;;;15.18;6.82;;;6.10;99.90;;;;;;5028349;28;20042;-87
2022/11/27 07:48:48;;;;;;;19.10;7.32;;;6.10;99.90;;;;;;5008363;28;20029;-81
2022/11/27 07:51:17;;;;;;;12.60;6.53;;;6.20;99.90;;;;;;5010578;28;20040;-81
2022/11/27 07:53:43;;;;;;;16.58;7.30;;;6.10;99.90;;;;;;5027079;28;20060;-83
2022/11/27 07:56:12;;;;;;;14.77;7.40;;;6.10;99.90;;;;;;5027304;28;20044;-85
2022/11/27 07:58:39;;;;;;;11.90;6.20;;;6.20;99.90;;;;;;5041130;28;20614;-82
2022/11/27 08:01:07;;;;;;;14.30;8.57;;;6.20;99.90;;;;;;4994760;28;20042;-80
2022/11/27 08:03:34;;;;;;;16.80;8.77;;;6.20;99.90;;;;;;5043245;28;20403;-85
2022/11/27 08:06:00;;;;;;;13.80;6.93;;;6.20;99.90;;;;;;5010301;28;20041;-84
2022/11/27 08:08:27;;;;;;;18.25;8.45;;;6.20;99.90;;;;;;5006446;28;20037;-82
2022/11/27 08:10:53;;;;;;;14.80;7.78;;;6.20;99.90;;;;;;5026445;28;20033;-82
2022/11/27 08:13:19;;;;;;;14.25;8.10;;;6.20;99.90;;;;;;5008613;28;20048;-81
2022/11/27 08:15:46;;;;;;;20.80;9.63;;;6.20;99.90;;;;;;5026971;28;20507;-83
2022/11/27 08:18:13;;;;;;;19.95;9.98;;;6.10;99.90;;;;;;5022974;28;20033;-81
2022/11/27 08:20:39;;;;;;;18.35;10.02;;;6.10;99.90;;;;;;5010442;28;20044;-85
2022/11/27 08:23:05;;;;;;;17.70;10.30;;;6.10;99.90;;;;;;5027587;28;20048;-81
2022/11/27 08:25:32;;;;;;;18.48;10.45;;;6.10;99.90;;;;;;5010664;28;20033;-81
2022/11/27 08:27:58;;;;;;;16.98;9.18;;;6.10;99.90;;;;;;5023152;28;20044;-78
2022/11/27 08:30:24;;;;;;;23.33;10.82;;;6.20;99.90;;;;;;5039938;28;20029;-80
2022/11/27 08:32:50;;;;;;;15.68;8.23;;;6.20;99.90;;;;;;5024792;28;20036;-78
2022/11/27 08:35:17;;;;;;;19.90;9.15;;;6.10;99.90;;;;;;5024716;28;20034;-80
2022/11/27 08:37:43;;;;;;;20.52;9.90;;;6.10;99.90;;;;;;5022774;28;20429;-80
2022/11/27 08:40:10;;;;;;;19.08;9.30;;;6.20;99.90;;;;;;5007499;28;20044;-78
2022/11/27 08:42:36;;;;;;;20.63;10.27;;;6.20;99.90;;;;;;4991747;28;20045;-77
2022/11/27 08:45:03;;;;;;;23.95;11.02;;;6.10;99.90;;;;;;5004273;28;20508;-79
2022/11/27 08:47:31;;;;;;;16.77;10.32;;;6.10;99.90;;;;;;5000947;28;20064;-77
2022/11/27 08:49:57;;;;;;;18.55;10.65;;;6.20;99.90;;;;;;5003502;28;20044;-79
2022/11/27 08:52:24;;;;;;;18.27;9.32;;;6.10;99.90;;;;;;5007768;28;20396;-77
2022/11/27 08:54:51;;;;;;;19.88;8.88;;;6.10;99.90;;;;;;5007923;28;20062;-78
2022/11/27 08:57:17;;;;;;;18.42;10.52;;;6.10;99.90;;;;;;4988644;28;20284;-76
2022/11/27 08:59:44;;;;;;;22.38;10.73;;;6.10;99.90;;;;;;5024179;28;20172;-78
2022/11/27 09:02:12;;;;;;;20.95;10.80;;;6.10;99.90;;;;;;5023273;28;20033;-77
2022/11/27 09:04:38;;;;;;;16.75;9.00;;;6.10;99.90;;;;;;5008107;28;20056;-77
2022/11/27 09:07:04;;;;;;;19.23;9.43;;;6.10;99.90;;;;;;5036404;28;20029;-78
2022/11/27 09:09:31;;;;;;;18.17;9.30;;;6.10;99.90;;;;;;5006218;28;20481;-78
2022/11/27 09:11:57;;;;;;;21.13;11.32;;;6.10;99.90;;;;;;5018785;28;20056;-79
2022/11/27 09:14:23;;;;;;;21.42;11.35;;;6.10;99.90;;;;;;5017850;28;20046;-79
2022/11/27 09:16:50;;;;;;;18.80;9.93;;;6.10;99.90;;;;;;5006855;28;20037;-76
2022/11/27 09:19:17;;;;;;;18.50;9.57;;;6.10;99.90;;;;;;5002659;28;20524;-75
2022/11/27 09:21:43;;;;;;;16.80;10.98;;;6.10;99.90;;;;;;5017761;28;20041;-78
2022/11/27 09:24:09;;;;;;;21.58;11.02;;;6.20;99.90;;;;;;5018768;28;20033;-78
2022/11/27 09:26:35;;;;;;;19.73;9.65;;;6.20;99.90;;;;;;5017690;28;20042;-76
2022/11/27 09:29:02;;;;;;;18.08;9.63;;;6.20;99.90;;;;;;5017147;28;20052;-78
2022/11/27 09:31:29;;;;;;;22.10;10.90;;;6.20;99.90;;;;;;5021847;28;20030;-78
2022/11/27 09:33:57;;;;;;;18.58;10.20;;;6.20;99.90;;;;;;5000579;28;20041;-79
2022/11/27 09:36:25;;;;;;;17.80;9.73;;;6.20;99.90;;;;;;5001368;28;20026;-80
2022/11/27 09:38:52;;;;;;;15.63;9.15;;;6.30;99.90;;;;;;5002094;28;20037;-78
2022/11/27 09:41:18;;;;;;;19.92;10.57;;;6.30;99.90;;;;;;5017706;28;20049;-78
2022/11/27 09:43:55;;;;;;;18.20;10.43;;;6.30;99.90;;;;;;5012542;28;20041;-81
2022/11/27 09:46:43;;;;;;;21.80;11.20;;;6.30;99.90;;;;;;5022880;28;20485;-80
2022/11/27 09:49:14;;;;;;;17.27;10.35;;;6.30;99.90;;;;;;5019242;28;20436;-77
2022/11/27 09:52:21;;;;;;;14.10;8.75;;;6.30;99.90;;;;;;5033476;28;20033;-78
2022/11/27 09:55:01;;;;;;;17.20;10.68;;;6.40;99.90;;;;;;5000733;28;20037;-78
2022/11/27 09:57:32;;;;;;;17.13;10.35;;;6.40;99.90;;;;;;5001140;28;20512;-77
2022/11/27 10:00:03;;;;;;;19.35;12.25;;;6.40;99.90;;;;;;5020203;28;20037;-78
2022/11/27 10:02:33;;;;;;;22.88;12.20;;;6.40;99.90;;;;;;5021700;28;20033;-76
2022/11/27 10:05:03;;;;;;;15.93;9.73;;;6.50;99.90;;;;;;5039680;28;20034;-77
2022/11/27 10:07:45;;;;;;;19.58;11.13;;;6.50;99.90;;;;;;4999954;28;20617;-77
2022/11/27 10:10:43;;;;;;;17.88;9.10;;;6.50;99.90;;;;;;5012498;28;20041;-76
2022/11/27 10:13:40;;;;;;;23.45;10.95;;;6.60;99.90;;;;;;5022153;28;20053;-80
2022/11/27 10:16:36;;;;;;;17.55;9.13;;;6.60;99.90;;;;;;5023143;28;20107;-77
2022/11/27 10:19:03;;;;;;;21.85;12.05;;;6.70;99.90;;;;;;5002959;28;20033;-78
2022/11/27 10:21:40;;;;;;;32.42;19.05;;;6.70;99.90;;;;;;5020186;28;20025;-78
2022/11/27 10:24:37;;;;;;;26.83;14.55;;;6.70;99.90;;;;;;5024772;28;20036;-79
2022/11/27 10:27:16;;;;;;;22.00;11.18;;;6.70;99.90;;;;;;5004318;28;20229;-79
2022/11/27 10:29:51;;;;;;;21.70;10.80;;;6.70;99.90;;;;;;5005757;28;20038;-79
2022/11/27 10:32:24;;;;;;;19.42;11.02;;;6.80;99.90;;;;;;5002057;28;20369;-79
2022/11/27 10:35:11;;;;;;;17.08;9.18;;;6.80;99.90;;;;;;5007922;28;20033;-79
2022/11/27 10:37:40;;;;;;;23.33;10.15;;;6.80;99.90;;;;;;5023635;28;20030;-78
2022/11/27 10:40:14;;;;;;;17.25;9.45;;;6.80;99.90;;;;;;5004481;28;20037;-79
2022/11/27 10:42:47;;;;;;;15.57;9.45;;;6.80;99.90;;;;;;5028035;28;20034;-79
2022/11/27 10:45:26;;;;;;;20.80;12.73;;;6.90;99.90;;;;;;5044133;28;20046;-75
2022/11/27 10:47:53;;;;;;;19.92;9.55;;;6.90;99.90;;;;;;5024348;28;20058;-77
2022/11/27 10:50:19;;;;;;;18.17;9.65;;;6.90;99.90;;;;;;5009013;28;20030;-78
2022/11/27 10:52:54;;;;;;;15.52;8.80;;;6.90;99.90;;;;;;4994466;28;20500;-77
2022/11/27 10:55:45;;;;;;;20.15;10.68;;;7.00;99.90;;;;;;5027609;28;20153;-77
2022/11/27 10:58:40;;;;;;;14.88;9.75;;;7.00;99.90;;;;;;5005773;28;20050;-74
2022/11/27 11:01:10;;;;;;;15.52;10.45;;;7.00;99.90;;;;;;5002556;28;20033;-75
2022/11/27 11:03:36;;;;;;;14.77;10.02;;;7.00;99.90;;;;;;5018895;28;20037;-74
2022/11/27 11:06:15;;;;;;;13.10;8.23;;;7.00;99.90;;;;;;5028868;28;20051;-76
2022/11/27 11:08:42;;;;;;;20.00;10.38;;;7.00;99.90;;;;;;5023392;28;20029;-76
2022/11/27 11:11:08;;;;;;;17.73;7.70;;;7.10;99.90;;;;;;5024622;28;20038;-76
2022/11/27 11:13:40;;;;;;;16.30;8.50;;;7.10;99.90;;;;;;5025050;28;20040;-75
2022/11/27 11:16:09;;;;;;;15.57;9.15;;;7.10;99.90;;;;;;5028855;28;20055;-77
2022/11/27 11:18:50;;;;;;;15.35;8.15;;;7.10;99.90;;;;;;5036538;28;20044;-75
2022/11/27 11:21:31;;;;;;;16.58;8.88;;;7.10;99.90;;;;;;5034574;28;20044;-77
2022/11/27 11:24:13;;;;;;;17.70;8.85;;;7.10;99.90;;;;;;4983406;28;20044;-77
2022/11/27 11:26:45;;;;;;;14.95;8.32;;;7.10;99.90;;;;;;5003296;28;20396;-76
2022/11/27 11:29:27;;;;;;;15.07;8.77;;;7.20;99.90;;;;;;5000027;28;20044;-77
2022/11/27 11:31:55;;;;;;;12.00;7.53;;;7.20;99.90;;;;;;5006147;28;20288;-78
2022/11/27 11:34:29;;;;;;;12.32;6.72;;;7.20;99.90;;;;;;4988952;28;20571;-77
2022/11/27 11:37:04;;;;;;;21.90;9.75;;;7.30;99.90;;;;;;5024463;28;20041;-75
2022/11/27 11:39:43;;;;;;;12.63;7.47;;;7.30;99.90;;;;;;5006461;28;20385;-77
2022/11/27 11:42:18;;;;;;;13.57;8.25;;;7.30;99.90;;;;;;5004781;28;20029;-77
2022/11/27 11:44:51;;;;;;;11.82;8.32;;;7.30;99.90;;;;;;5021646;28;20056;-77
2022/11/27 11:47:19;;;;;;;13.27;8.50;;;7.30;99.90;;;;;;5021366;28;20045;-76
2022/11/27 11:49:46;;;;;;;14.18;9.10;;;7.30;99.90;;;;;;5008258;28;20496;-76
2022/11/27 11:52:24;;;;;;;16.02;7.68;;;7.40;99.90;;;;;;5007989;28;20040;-76
2022/11/27 11:55:11;;;;;;;17.55;8.80;;;7.40;99.90;;;;;;5043786;28;20029;-77
2022/11/27 11:58:16;;;;;;;16.75;9.18;;;7.40;99.90;;;;;;5007489;28;20048;-76
2022/11/27 12:00:58;;;;;;;15.05;8.57;;;7.40;99.90;;;;;;5027056;28;21495;-76
2022/11/27 12:03:53;;;;;;;13.17;8.97;;;7.40;99.90;;;;;;5030013;28;20407;-77
2022/11/27 12:06:54;;;;;;;16.10;8.50;;;7.40;99.90;;;;;;5028956;28;20290;-77
2022/11/27 12:09:32;;;;;;;11.45;8.18;;;7.40;99.90;;;;;;5026073;28;20117;-77
2022/11/27 12:12:12;;;;;;;14.82;8.75;;;7.40;99.90;;;;;;5012676;28;20067;-77
2022/11/27 12:15:08;;;;;;;15.57;8.73;;;7.40;99.90;;;;;;5014857;28;20503;-78
2022/11/27 12:17:41;;;;;;;13.30;8.27;;;7.40;99.90;;;;;;4990574;28;20056;-77
2022/11/27 12:20:16;;;;;;;10.13;7.28;;;7.40;99.90;;;;;;4980423;28;20037;-77
2022/11/27 12:23:14;;;;;;;13.07;7.75;;;7.40;99.90;;;;;;5028064;28;20523;-76
2022/11/27 12:25:46;;;;;;;15.60;9.60;;;7.40;99.90;;;;;;5011286;28;20511;-77
2022/11/27 12:28:44;;;;;;;15.93;8.15;;;7.40;99.90;;;;;;5006581;28;20052;-77
2022/11/27 12:31:43;;;;;;;13.77;8.68;;;7.50;99.90;;;;;;5024238;28;20520;-77
2022/11/27 12:34:17;;;;;;;10.52;7.32;;;7.50;99.90;;;;;;5013526;28;20037;-78
2022/11/27 12:37:11;;;;;;;10.35;6.88;;;7.50;99.90;;;;;;5031364;28;20096;-80
2022/11/27 12:40:13;;;;;;;9.23;6.47;;;7.60;99.90;;;;;;5013001;28;20037;-78
2022/11/27 12:43:14;;;;;;;12.90;7.22;;;7.60;99.90;;;;;;5018120;28;20033;-78
2022/11/27 12:45:56;;;;;;;13.25;8.23;;;7.70;99.90;;;;;;5012441;28;20053;-78
2022/11/27 12:48:34;;;;;;;12.95;7.35;;;7.60;99.90;;;;;;5016275;28;20034;-79
2022/11/27 12:51:17;;;;;;;12.65;7.93;;;7.60;99.90;;;;;;5023778;28;20045;-78
2022/11/27 12:53:51;;;;;;;11.38;6.15;;;7.60;99.90;;;;;;5006780;28;20041;-77
2022/11/27 12:56:25;;;;;;;12.88;6.80;;;7.60;99.90;;;;;;5005685;28;20455;-79
2022/11/27 12:59:15;;;;;;;9.77;6.72;;;7.60;99.90;;;;;;5019184;28;20046;-80
2022/11/27 13:01:51;;;;;;;10.75;6.93;;;7.60;99.90;;;;;;5022037;28;20037;-79
2022/11/27 13:04:28;;;;;;;11.57;7.20;;;7.50;99.90;;;;;;5034492;28;20037;-80
2022/11/27 13:07:07;;;;;;;11.95;9.13;;;7.60;99.90;;;;;;5017735;28;20455;-80
2022/11/27 13:09:56;;;;;;;10.95;7.13;;;7.60;99.90;;;;;;4997774;28;20048;-79
2022/11/27 13:12:34;;;;;;;15.02;8.70;;;7.60;99.90;;;;;;5019111;28;20033;-80